createdAt,value
2022-10-22T05:54:35.674Z,14.73
2022-10-22T06:30:31.715Z,14.51
2022-10-22T06:32:58.151Z,14.51
2022-10-22T06:35:24.525Z,14.53
2022-10-22T06:38:08.088Z,14.55
2022-10-22T06:41:25.768Z,14.58
2022-10-22T06:43:57.169Z,14.59
2022-10-22T06:46:27.211Z,14.59
2022-10-22T06:48:58.438Z,14.54
2022-10-22T06:51:25.556Z,14.53
2022-10-22T06:53:55.416Z,14.50
2022-10-22T06:56:24.523Z,14.47
2022-10-22T06:58:52.401Z,14.42
2022-10-22T07:01:48.695Z,14.41
2022-10-22T07:04:21.236Z,14.39
2022-10-22T07:06:56.763Z,14.37
2022-10-22T07:09:23.236Z,14.35
2022-10-22T07:11:55.872Z,14.34
2022-10-22T07:14:22.328Z,14.37
2022-10-22T07:16:50.427Z,14.37
2022-10-22T07:19:16.876Z,14.34
2022-10-22T07:21:43.323Z,14.35
2022-10-22T07:24:09.763Z,14.32
2022-10-22T07:26:36.803Z,14.29
2022-10-22T07:29:04.339Z,14.30
2022-10-22T07:31:40.695Z,14.28
2022-10-22T07:34:07.632Z,14.31
2022-10-22T07:36:34.106Z,14.34
2022-10-22T07:39:00.684Z,14.37
2022-10-22T07:41:28.698Z,14.37
2022-10-22T07:43:55.735Z,14.37
2022-10-22T07:46:24.731Z,14.35
2022-10-22T07:48:51.191Z,14.34
2022-10-22T07:51:17.722Z,14.32
2022-10-22T07:53:44.182Z,14.30
2022-10-22T07:56:35.870Z,14.28
2022-10-22T08:01:33.638Z,14.20
2022-10-22T08:04:00.160Z,14.21
2022-10-22T08:06:36.509Z,14.18
2022-10-22T08:09:04.622Z,14.14
2022-10-22T08:11:33.368Z,14.06
2022-10-22T08:13:59.915Z,14.09
2022-10-22T08:16:26.448Z,14.11
2022-10-22T08:18:53.196Z,14.06
2022-10-22T08:21:19.611Z,14.05
2022-10-22T08:23:45.985Z,14.06
2022-10-22T08:26:12.392Z,14.06
2022-10-22T08:28:38.900Z,14.04
2022-10-22T08:31:07.400Z,14.03
2022-10-22T08:33:42.391Z,14.00
2022-10-22T08:36:09.308Z,14.04
2022-10-22T08:38:36.224Z,14.14
2022-10-22T08:41:14.560Z,14.18
2022-10-22T08:44:18.176Z,14.18
2022-10-22T08:47:20.067Z,14.22
2022-10-22T08:49:48.891Z,14.30
2022-10-22T08:52:17.436Z,14.36
2022-10-22T08:54:53.665Z,14.46
2022-10-22T08:57:55.277Z,14.51
2022-10-22T09:00:25.842Z,14.62
2022-10-22T09:03:04.380Z,14.70
2022-10-22T09:05:46.934Z,14.79
2022-10-22T09:08:15.513Z,14.86
2022-10-22T09:10:46.783Z,14.90
2022-10-22T09:13:38.614Z,14.93
2022-10-22T09:19:20.041Z,15.04
2022-10-22T09:21:53.352Z,15.08
2022-10-22T09:24:53.454Z,15.14
2022-10-22T09:27:29.002Z,15.17
2022-10-22T09:30:07.581Z,15.19
2022-10-22T09:32:34.117Z,15.23
2022-10-22T09:35:01.150Z,15.27
2022-10-22T09:38:07.814Z,15.28
2022-10-22T09:40:43.836Z,15.35
2022-10-22T09:43:18.890Z,15.39
2022-10-22T09:46:17.564Z,15.43
2022-10-22T09:49:02.197Z,15.49
2022-10-22T09:52:25.145Z,15.54
2022-10-22T09:55:28.159Z,15.59
2022-10-22T09:57:56.068Z,15.64
2022-10-22T10:00:24.922Z,15.69
2022-10-22T10:02:56.350Z,15.72
2022-10-22T10:05:44.055Z,15.78
2022-10-22T10:08:25.462Z,15.85
2022-10-22T10:11:03.118Z,15.91
2022-10-22T10:13:38.583Z,15.98
2022-10-22T10:16:27.483Z,16.06
2022-10-22T10:19:07.408Z,16.13
2022-10-22T10:21:38.847Z,16.18
2022-10-22T10:24:17.720Z,16.24
2022-10-22T10:26:55.386Z,16.30
2022-10-22T10:29:54.656Z,16.33
2022-10-22T10:33:40.620Z,16.35
2022-10-22T10:36:31.781Z,16.41
2022-10-22T10:39:10.145Z,16.47
2022-10-22T10:42:01.305Z,16.55
2022-10-22T10:44:59.240Z,16.54
2022-10-22T10:48:33.912Z,16.58
2022-10-22T10:51:23.460Z,16.68
2022-10-22T10:54:16.856Z,16.83
2022-10-22T10:57:14.218Z,16.92
2022-10-22T11:00:15.913Z,17.03
2022-10-22T11:03:04.658Z,17.08
2022-10-22T11:06:08.023Z,17.15
2022-10-22T11:08:43.100Z,17.19
2022-10-22T11:11:19.809Z,17.22
2022-10-22T11:14:14.902Z,17.28
2022-10-22T11:17:14.445Z,17.36
2022-10-22T11:19:51.552Z,17.41
2022-10-22T11:25:42.716Z,17.45
2022-10-22T11:28:28.067Z,17.50
2022-10-22T11:31:30.072Z,17.55
2022-10-22T11:34:32.723Z,17.59
2022-10-22T11:37:10.004Z,17.67
2022-10-22T11:45:50.221Z,17.71
2022-10-22T11:48:36.777Z,17.75
2022-10-22T11:51:04.194Z,17.84
2022-10-22T11:53:31.760Z,17.91
2022-10-22T11:56:22.687Z,17.95
2022-10-22T11:58:52.307Z,17.97
2022-10-22T12:02:01.211Z,18.04
2022-10-22T12:04:42.007Z,18.11
2022-10-22T12:07:41.193Z,18.18
2022-10-22T12:10:53.068Z,18.16
2022-10-22T12:13:32.779Z,18.18
2022-10-22T12:16:32.215Z,18.22
2022-10-22T12:19:41.849Z,18.29
2022-10-22T12:22:52.057Z,18.28
2022-10-22T12:25:26.500Z,18.28
2022-10-22T12:28:02.482Z,18.28
2022-10-22T12:30:55.175Z,18.25
2022-10-22T12:33:22.793Z,18.21
2022-10-22T12:35:52.844Z,18.12
2022-10-22T12:38:21.982Z,18.10
2022-10-22T12:40:50.735Z,18.16
2022-10-22T12:43:27.709Z,18.27
2022-10-22T12:46:16.341Z,18.45
2022-10-22T12:48:44.316Z,18.61
2022-10-22T12:51:16.979Z,18.67
2022-10-22T12:53:51.159Z,18.80
2022-10-22T12:56:26.797Z,18.91
2022-10-22T13:02:37.889Z,19.01
2022-10-22T13:05:19.724Z,19.03
2022-10-22T13:07:52.108Z,19.01
2022-10-22T13:10:24.119Z,18.96
2022-10-22T13:12:55.091Z,18.95
2022-10-22T13:15:35.134Z,19.04
2022-10-22T13:18:40.141Z,19.05
2022-10-22T13:21:35.283Z,19.10
2022-10-22T13:24:48.085Z,19.19
2022-10-22T13:27:23.264Z,19.28
2022-10-22T13:30:00.859Z,19.36
2022-10-22T13:32:30.612Z,19.37
2022-10-22T13:34:58.755Z,19.36
2022-10-22T13:37:26.585Z,19.32
2022-10-22T13:39:53.388Z,19.30
2022-10-22T13:42:19.890Z,19.32
2022-10-22T13:44:46.463Z,19.38
2022-10-22T13:47:27.236Z,19.43
2022-10-22T13:52:36.150Z,19.36
2022-10-22T13:55:13.275Z,19.18
2022-10-22T13:57:39.683Z,19.19
2022-10-22T14:00:06.860Z,19.27
2022-10-22T14:02:39.242Z,19.30
2022-10-22T14:05:09.315Z,19.31
2022-10-22T14:07:36.639Z,19.27
2022-10-22T14:10:06.672Z,19.19
2022-10-22T14:12:33.315Z,19.12
2022-10-22T14:14:59.690Z,19.07
2022-10-22T14:17:26.507Z,19.04
2022-10-22T14:19:52.955Z,19.07
2022-10-22T14:22:19.992Z,19.14
2022-10-22T14:24:47.021Z,19.14
2022-10-22T14:27:14.731Z,19.12
2022-10-22T14:29:41.554Z,19.11
2022-10-22T14:32:20.109Z,19.03
2022-10-22T14:34:46.813Z,18.95
2022-10-22T14:37:19.471Z,18.90
2022-10-22T14:39:53.147Z,18.88
2022-10-22T14:42:20.063Z,18.82
2022-10-22T14:44:46.844Z,18.76
2022-10-22T14:47:13.931Z,18.73
2022-10-22T14:49:40.328Z,18.71
2022-10-22T14:52:09.500Z,18.66
2022-10-22T14:54:38.269Z,18.62
2022-10-22T14:57:05.524Z,18.57
2022-10-22T14:59:31.969Z,18.54
2022-10-22T15:01:58.417Z,18.54
2022-10-22T15:04:26.916Z,18.56
2022-10-22T15:06:56.244Z,18.56
2022-10-22T15:09:23.974Z,18.56
2022-10-22T15:11:50.949Z,18.56
2022-10-22T15:14:17.344Z,18.55
2022-10-22T15:16:43.734Z,18.57
2022-10-22T15:19:11.096Z,18.58
2022-10-22T15:21:37.539Z,18.57
2022-10-22T15:24:04.660Z,18.52
2022-10-22T15:26:31.099Z,18.49
2022-10-22T15:28:57.623Z,18.48
2022-10-22T15:31:49.060Z,18.40
2022-10-22T15:34:24.670Z,18.33
2022-10-22T15:36:51.492Z,18.27
2022-10-22T15:39:17.904Z,18.18
2022-10-22T15:41:46.897Z,18.07
2022-10-22T15:44:16.267Z,17.93
2022-10-22T15:46:44.239Z,17.81
2022-10-22T15:49:10.937Z,17.73
2022-10-22T15:51:37.401Z,17.64
2022-10-22T15:54:09.266Z,17.53
2022-10-22T15:56:37.016Z,17.38
2022-10-22T15:59:04.222Z,17.23
2022-10-22T16:01:32.785Z,17.11
2022-10-22T16:04:01.241Z,17.02
2022-10-22T16:06:28.460Z,16.92
2022-10-22T16:08:57.555Z,16.84
2022-10-22T16:11:24.377Z,16.76
2022-10-22T16:13:56.336Z,16.66
2022-10-22T16:16:33.544Z,16.58
2022-10-22T16:19:00.269Z,16.52
2022-10-22T16:21:27.641Z,16.49
2022-10-22T16:23:54.409Z,16.44
2022-10-22T16:26:22.140Z,16.41
2022-10-22T16:28:48.867Z,16.34
2022-10-22T16:31:18.167Z,16.26
2022-10-22T16:33:47.745Z,16.23
2022-10-22T16:36:19.425Z,16.21
2022-10-22T16:38:46.673Z,16.17
2022-10-22T16:41:18.559Z,16.11
2022-10-22T16:43:48.507Z,16.04
2022-10-22T17:02:37.467Z,15.79
2022-10-22T17:05:50.539Z,15.77
2022-10-22T17:09:03.814Z,15.73
2022-10-22T17:12:21.582Z,15.71
2022-10-22T17:15:37.897Z,15.63
2022-10-22T17:18:09.539Z,15.58
2022-10-22T17:20:52.965Z,15.52
2022-10-22T17:27:59.731Z,15.39
2022-10-22T17:31:09.619Z,15.32
2022-10-22T17:34:23.871Z,15.26
2022-10-22T17:41:31.159Z,15.25
2022-10-22T17:44:13.648Z,15.27
2022-10-22T17:46:56.857Z,15.31
2022-10-22T17:49:29.942Z,15.30
2022-10-22T17:56:46.962Z,15.35
2022-10-22T17:59:53.740Z,15.35
2022-10-22T18:05:24.722Z,15.46
2022-10-22T18:11:10.013Z,15.47
2022-10-22T18:13:41.415Z,15.45
2022-10-22T18:16:16.765Z,15.45
2022-10-22T18:18:50.933Z,15.41
2022-10-22T18:28:44.737Z,15.41
2022-10-22T18:32:23.427Z,15.45
2022-10-22T18:35:21.119Z,15.51
2022-10-22T18:38:30.793Z,15.51
2022-10-22T18:51:24.186Z,15.45
2022-10-22T18:54:43.677Z,15.44
2022-10-22T18:58:19.558Z,15.40
2022-10-22T19:00:48.035Z,15.38
2022-10-22T19:03:26.383Z,15.34
2022-10-22T19:06:25.220Z,15.29
2022-10-22T19:09:31.715Z,15.24
2022-10-22T19:12:02.259Z,15.20
2022-10-22T19:15:02.141Z,15.16
2022-10-22T19:17:59.679Z,15.16
2022-10-22T19:20:31.990Z,15.15
2022-10-22T19:23:51.719Z,15.12
2022-10-22T19:27:28.088Z,15.09
2022-10-22T19:30:22.179Z,15.08
2022-10-22T19:33:18.941Z,15.04
2022-10-22T19:35:52.391Z,15.04
2022-10-22T19:46:59.947Z,15.05
2022-10-22T19:50:16.891Z,15.07
2022-10-22T19:53:01.514Z,15.04
2022-10-22T19:55:30.056Z,14.98
2022-10-22T19:58:02.739Z,14.98
2022-10-22T20:04:06.503Z,14.93
2022-10-22T20:07:49.999Z,14.93
2022-10-22T20:10:21.695Z,14.94
2022-10-22T20:12:52.735Z,14.90
2022-10-22T20:15:33.242Z,14.88
2022-10-22T20:18:45.215Z,14.89
2022-10-22T20:21:39.792Z,14.91
2022-10-22T20:24:26.883Z,14.89
2022-10-22T20:27:07.428Z,14.91
2022-10-22T20:29:42.684Z,14.94
2022-10-22T20:32:28.542Z,14.97
2022-10-22T20:35:22.157Z,15.01
2022-10-22T20:48:26.637Z,14.98
2022-10-22T20:51:31.722Z,14.96
2022-10-22T20:54:20.233Z,14.93
2022-10-22T21:12:13.640Z,14.81
2022-10-22T21:14:56.206Z,14.74
2022-10-22T21:21:33.256Z,14.70
2022-10-22T21:28:09.830Z,14.69
2022-10-22T21:30:56.468Z,14.68
2022-10-22T21:40:23.922Z,14.67
2022-10-22T21:43:52.560Z,14.65
2022-10-22T21:46:56.711Z,14.56
2022-10-22T21:49:41.876Z,14.54
2022-10-22T22:04:01.027Z,14.39
2022-10-22T22:06:33.123Z,14.36
2022-10-22T22:09:28.359Z,14.29
2022-10-22T22:12:40.783Z,14.24
2022-10-22T22:15:25.746Z,14.14
2022-10-22T22:18:04.410Z,14.13
2022-10-22T22:20:33.077Z,14.13
2022-10-22T22:28:12.687Z,14.06
2022-10-22T22:30:44.447Z,14.04
2022-10-22T22:34:06.169Z,14.03
2022-10-22T22:44:37.918Z,13.93
2022-10-22T22:47:05.674Z,13.88
2022-10-22T22:49:37.340Z,13.86
2022-10-22T22:55:01.661Z,13.83
2022-10-22T22:57:38.535Z,13.80
2022-10-22T23:00:21.620Z,13.80
2022-10-22T23:03:21.490Z,13.77
2022-10-22T23:05:59.521Z,13.76
2022-10-22T23:16:33.355Z,13.67
2022-10-22T23:19:09.922Z,13.66
2022-10-22T23:21:39.946Z,13.67
2022-10-22T23:24:37.881Z,13.63
2022-10-22T23:31:25.674Z,13.55
2022-10-22T23:34:34.579Z,13.53
2022-10-22T23:37:37.431Z,13.51
2022-10-22T23:40:09.573Z,13.51
2022-10-22T23:43:07.526Z,13.49
2022-10-22T23:50:03.304Z,13.49
2022-10-22T23:52:56.296Z,13.49
2022-10-22T23:56:22.788Z,13.46
2022-10-22T23:59:28.363Z,13.45
